Time;durP1;ratioP1;P1;durP2;ratioP2;P2;SDS_P1;SDS_P2;PMS_P1;PMS_P2;Temp;Humidity;BMP_temperature;BMP_pressure;BME280_temperature;BME280_humidity;BME280_pressure;Samples;Min_cycle;Max_cycle;Signal;HPM_P1;HPM_P2
2023/01/04 00:01:35;;;;;;;7.75;4.22;;;8.40;99.90;;;;;;7369813;19;20413;-51
2023/01/04 00:04:01;;;;;;;8.23;3.38;;;8.40;99.90;;;;;;7362741;19;20025;-52
2023/01/04 00:06:28;;;;;;;11.00;3.50;;;8.40;99.90;;;;;;7369449;19;20381;-51
2023/01/04 00:08:55;;;;;;;7.93;3.53;;;8.40;99.90;;;;;;7364979;19;20015;-51
2023/01/04 00:11:23;;;;;;;10.57;3.58;;;8.40;99.90;;;;;;7368371;19;20528;-52
2023/01/04 00:13:54;;;;;;;8.05;3.47;;;8.50;99.90;;;;;;7363085;19;20023;-52
2023/01/04 00:16:22;;;;;;;7.03;3.30;;;8.50;99.90;;;;;;7367199;19;20014;-52
2023/01/04 00:18:56;;;;;;;8.63;3.72;;;8.50;99.90;;;;;;7367012;19;20015;-52
2023/01/04 00:21:29;;;;;;;11.73;4.65;;;8.50;99.90;;;;;;7366638;19;20634;-52
2023/01/04 00:23:59;;;;;;;7.85;3.28;;;8.50;99.90;;;;;;7365397;19;20082;-49
2023/01/04 00:26:31;;;;;;;8.45;3.67;;;8.50;99.90;;;;;;7368644;19;20811;-52
2023/01/04 00:29:00;;;;;;;11.48;3.85;;;8.40;99.90;;;;;;7368894;19;20034;-53
2023/01/04 00:31:28;;;;;;;9.70;3.63;;;8.40;99.90;;;;;;7367687;19;20464;-51
2023/01/04 00:33:59;;;;;;;9.23;3.88;;;8.50;99.90;;;;;;7364229;19;20014;-53
2023/01/04 00:36:26;;;;;;;7.82;4.03;;;8.40;99.90;;;;;;7366441;19;20533;-52
2023/01/04 00:39:09;;;;;;;9.20;3.70;;;8.40;99.90;;;;;;7366666;19;20486;-53
2023/01/04 00:41:37;;;;;;;9.30;4.20;;;8.30;99.90;;;;;;7364814;19;20622;-51
2023/01/04 00:44:05;;;;;;;11.85;4.55;;;8.30;99.90;;;;;;7364203;19;20018;-53
2023/01/04 00:46:32;;;;;;;8.48;3.97;;;8.20;99.90;;;;;;7366588;19;20950;-53
2023/01/04 00:48:59;;;;;;;9.93;4.18;;;8.20;99.90;;;;;;7364814;19;20029;-53
2023/01/04 00:51:26;;;;;;;11.50;4.13;;;8.20;99.90;;;;;;7363206;19;20014;-52
2023/01/04 00:53:53;;;;;;;8.13;3.80;;;8.20;99.90;;;;;;7362667;19;20023;-50
2023/01/04 00:56:20;;;;;;;6.90;4.00;;;8.20;99.90;;;;;;7364861;19;20018;-48
2023/01/04 00:58:46;;;;;;;10.77;4.07;;;8.10;99.90;;;;;;7367064;19;20041;-52
2023/01/04 01:01:12;;;;;;;7.53;4.07;;;8.10;99.90;;;;;;7366544;19;20014;-51
2023/01/04 01:03:39;;;;;;;10.63;3.85;;;8.10;99.90;;;;;;7365558;19;20022;-52
2023/01/04 01:06:07;;;;;;;9.05;3.97;;;8.10;99.90;;;;;;7364981;19;20015;-51
2023/01/04 01:08:34;;;;;;;8.77;3.70;;;8.10;99.90;;;;;;7365134;19;20114;-52
2023/01/04 01:11:08;;;;;;;9.75;3.90;;;8.10;99.90;;;;;;7366085;19;20010;-51
2023/01/04 01:13:36;;;;;;;8.50;4.40;;;8.10;99.90;;;;;;7362387;19;20026;-51
2023/01/04 01:16:05;;;;;;;10.65;4.60;;;8.20;99.90;;;;;;7365965;19;20606;-52
2023/01/04 01:18:33;;;;;;;8.48;4.60;;;8.20;99.90;;;;;;7360511;19;20018;-53
2023/01/04 01:21:07;;;;;;;8.48;4.05;;;8.20;99.90;;;;;;7364582;19;20018;-53
2023/01/04 01:23:34;;;;;;;10.95;4.28;;;8.20;99.90;;;;;;7365120;19;20515;-52
2023/01/04 01:26:03;;;;;;;5.90;3.78;;;8.20;99.90;;;;;;7361355;19;20014;-52
2023/01/04 01:28:29;;;;;;;11.55;4.70;;;8.20;99.90;;;;;;7363909;19;20449;-51
2023/01/04 01:31:14;;;;;;;7.70;4.13;;;8.20;99.90;;;;;;7363831;19;20046;-52
2023/01/04 01:33:42;;;;;;;11.55;5.45;;;8.20;99.90;;;;;;7354731;19;20029;-54
2023/01/04 01:36:10;;;;;;;11.65;4.90;;;8.10;99.90;;;;;;7358105;19;20788;-52
2023/01/04 01:38:37;;;;;;;9.50;4.50;;;8.20;99.90;;;;;;7362600;19;20014;-52
2023/01/04 01:41:05;;;;;;;13.75;4.75;;;8.10;99.90;;;;;;7363279;19;20017;-53
2023/01/04 01:43:59;;;;;;;12.50;4.85;;;8.20;99.90;;;;;;7364796;19;20499;-52
2023/01/04 01:46:36;;;;;;;10.50;4.50;;;8.20;99.90;;;;;;7366802;19;20649;-53
2023/01/04 01:49:37;;;;;;;9.88;4.18;;;8.20;99.90;;;;;;7363864;19;20370;-53
2023/01/04 01:52:10;;;;;;;7.07;4.10;;;8.20;99.90;;;;;;7367550;19;20462;-54
2023/01/04 01:54:45;;;;;;;6.75;4.28;;;8.20;99.90;;;;;;7362074;19;20481;-54
2023/01/04 01:57:17;;;;;;;6.93;4.35;;;8.20;99.90;;;;;;7360574;19;20442;-53
2023/01/04 01:59:46;;;;;;;7.88;4.60;;;8.20;99.90;;;;;;7366600;19;20352;-53
2023/01/04 02:02:13;;;;;;;8.63;4.70;;;8.10;99.90;;;;;;7364528;19;20374;-54
2023/01/04 02:05:02;;;;;;;10.45;4.40;;;8.30;99.90;;;;;;7359375;19;20034;-53
2023/01/04 02:07:49;;;;;;;9.82;5.25;;;8.30;99.90;;;;;;7361289;19;20113;-53
2023/01/04 02:10:23;;;;;;;8.20;5.18;;;8.30;99.90;;;;;;7366726;19;20030;-49
2023/01/04 02:12:51;;;;;;;6.43;4.78;;;8.30;99.90;;;;;;7365329;19;20613;-47
2023/01/04 02:15:21;;;;;;;11.45;4.88;;;8.30;99.90;;;;;;7363481;19;20418;-52
2023/01/04 02:18:01;;;;;;;12.00;5.35;;;8.30;99.90;;;;;;7361861;19;20010;-50
2023/01/04 02:20:46;;;;;;;8.13;4.38;;;8.30;99.90;;;;;;7363941;19;20018;-53
2023/01/04 02:23:18;;;;;;;11.32;4.63;;;8.30;99.90;;;;;;7364452;19;20023;-55
2023/01/04 02:26:27;;;;;;;7.57;4.35;;;8.20;99.90;;;;;;7360407;19;20019;-55
2023/01/04 02:29:04;;;;;;;9.63;4.70;;;8.30;99.90;;;;;;7361189;19;20048;-48
2023/01/04 02:31:51;;;;;;;10.43;4.82;;;8.30;99.90;;;;;;7364293;19;20117;-55
2023/01/04 02:34:32;;;;;;;7.07;4.25;;;8.30;99.90;;;;;;7359970;19;20393;-54
2023/01/04 02:37:48;;;;;;;6.28;4.07;;;8.40;99.90;;;;;;7365453;19;20034;-54
2023/01/04 02:40:32;;;;;;;7.82;4.22;;;8.40;99.90;;;;;;7374876;19;20022;-55
2023/01/04 02:46:04;;;;;;;6.95;4.90;;;8.40;99.90;;;;;;7370088;19;20368;-55
2023/01/04 02:51:30;;;;;;;7.22;4.32;;;8.40;99.90;;;;;;7370973;19;20494;-54
2023/01/04 02:53:59;;;;;;;7.38;4.55;;;8.50;99.90;;;;;;7372358;19;20014;-54
2023/01/04 02:56:34;;;;;;;6.13;4.22;;;8.50;99.90;;;;;;7370892;19;20026;-54
2023/01/04 02:59:33;;;;;;;6.32;4.57;;;8.50;99.90;;;;;;7376486;19;20482;-54
2023/01/04 03:08:39;;;;;;;6.47;4.10;;;8.60;99.90;;;;;;7373344;19;20086;-53
2023/01/04 03:14:14;;;;;;;9.45;5.00;;;8.70;99.90;;;;;;7366815;19;20022;-47
2023/01/04 03:16:43;;;;;;;8.93;5.22;;;8.70;99.90;;;;;;7372120;19;20074;-50
2023/01/04 03:19:11;;;;;;;7.20;4.85;;;8.70;99.90;;;;;;7366523;19;20342;-46
2023/01/04 03:21:42;;;;;;;9.10;5.63;;;8.80;99.90;;;;;;7369819;19;20501;-47
2023/01/04 03:36:12;;;;;;;8.30;6.55;;;9.00;99.90;;;;;;7365332;19;20021;-47
2023/01/04 03:50:48;;;;;;;7.13;6.22;;;9.30;99.90;;;;;;7366655;19;20057;-49
2023/01/04 03:53:14;;;;;;;8.35;6.93;;;9.40;99.90;;;;;;7370147;19;20022;-49
2023/01/04 03:55:42;;;;;;;8.43;6.82;;;9.50;99.90;;;;;;7364191;19;20014;-50
2023/01/04 03:58:10;;;;;;;7.35;5.93;;;9.50;99.90;;;;;;7358727;19;20041;-54
2023/01/04 04:00:37;;;;;;;8.25;6.50;;;9.40;99.90;;;;;;7372039;19;20022;-49
2023/01/04 04:03:06;;;;;;;8.02;6.78;;;9.40;99.90;;;;;;7359860;19;20022;-47
2023/01/04 04:08:29;;;;;;;7.22;5.97;;;9.50;99.90;;;;;;7380349;19;20050;-54
2023/01/04 04:11:29;;;;;;;8.13;5.90;;;9.50;99.90;;;;;;7378498;19;20547;-55
2023/01/04 04:13:48;;;;;;;;;;;9.60;99.90;;;;;;7375133;19;20033;-55
2023/01/04 04:16:16;;;;;;;8.27;5.55;;;9.60;99.90;;;;;;7377441;19;19922;-55
2023/01/04 04:18:42;;;;;;;7.22;5.53;;;9.60;99.90;;;;;;7369532;19;20026;-46
2023/01/04 04:21:08;;;;;;;7.35;5.30;;;9.70;99.90;;;;;;7360111;19;20477;-51
2023/01/04 04:23:34;;;;;;;9.02;5.70;;;9.70;99.90;;;;;;7362077;19;20025;-49
2023/01/04 04:26:01;;;;;;;7.40;5.65;;;9.70;99.90;;;;;;7369454;19;20585;-47
2023/01/04 04:28:27;;;;;;;7.90;5.72;;;9.80;99.90;;;;;;7372958;19;20126;-49
2023/01/04 04:30:53;;;;;;;9.30;6.70;;;9.80;99.90;;;;;;7370719;19;20473;-54
2023/01/04 04:33:20;;;;;;;8.40;6.13;;;9.70;99.90;;;;;;7372370;19;20097;-54
2023/01/04 04:35:53;;;;;;;7.15;5.93;;;9.80;99.90;;;;;;7365426;19;20015;-46
2023/01/04 04:38:20;;;;;;;6.75;5.03;;;9.80;99.90;;;;;;7372321;19;20418;-54
2023/01/04 04:43:33;;;;;;;8.13;6.95;;;9.80;99.90;;;;;;7380443;19;20030;-50
2023/01/04 04:46:00;;;;;;;9.88;6.80;;;9.90;99.90;;;;;;7376522;19;20014;-49
2023/01/04 04:48:29;;;;;;;9.35;7.65;;;9.90;99.90;;;;;;7372110;19;20029;-49
2023/01/04 04:51:00;;;;;;;10.57;7.10;;;9.90;99.90;;;;;;7386012;19;20018;-57
2023/01/04 04:53:26;;;;;;;9.77;7.93;;;9.90;99.90;;;;;;7391148;19;20019;-54
2023/01/04 04:55:53;;;;;;;10.25;7.55;;;10.00;99.90;;;;;;7387893;19;20014;-54
2023/01/04 04:58:20;;;;;;;9.18;8.23;;;10.00;99.90;;;;;;7388789;19;20026;-54
2023/01/04 05:00:46;;;;;;;9.90;8.90;;;10.00;99.90;;;;;;7389676;19;20022;-55
2023/01/04 05:03:12;;;;;;;12.48;9.25;;;10.10;99.90;;;;;;7387074;19;20491;-53
2023/01/04 05:05:39;;;;;;;10.70;8.82;;;10.10;99.90;;;;;;7389105;19;20026;-54
2023/01/04 05:08:05;;;;;;;11.55;9.05;;;10.10;99.90;;;;;;7388499;19;20018;-55
2023/01/04 05:10:32;;;;;;;11.63;8.85;;;10.10;99.90;;;;;;7389297;19;20010;-54
2023/01/04 05:12:58;;;;;;;11.25;10.05;;;10.20;99.90;;;;;;7388809;19;20014;-54
2023/01/04 05:15:38;;;;;;;9.60;8.60;;;10.20;99.90;;;;;;7387341;19;20022;-53
2023/01/04 05:18:06;;;;;;;11.50;9.35;;;10.30;99.90;;;;;;7389943;19;20389;-55
2023/01/04 05:20:34;;;;;;;11.75;9.20;;;10.30;99.90;;;;;;7390270;19;20018;-55
2023/01/04 05:23:01;;;;;;;11.63;9.48;;;10.20;99.90;;;;;;7389905;19;20019;-55
2023/01/04 05:25:28;;;;;;;12.48;10.38;;;10.30;99.90;;;;;;7386880;19;20086;-55
2023/01/04 05:27:55;;;;;;;11.93;10.82;;;10.30;99.90;;;;;;7384797;19;20419;-56
2023/01/04 05:33:07;;;;;;;12.68;10.93;;;10.40;99.90;;;;;;7381789;19;20018;-56
2023/01/04 05:35:35;;;;;;;16.38;10.70;;;10.50;99.90;;;;;;7382356;19;20477;-55
2023/01/04 05:38:01;;;;;;;13.50;11.38;;;10.40;99.90;;;;;;7388773;19;20384;-55
2023/01/04 05:40:28;;;;;;;14.75;12.05;;;10.50;99.90;;;;;;7389577;19;20043;-56
2023/01/04 05:42:55;;;;;;;14.60;11.57;;;10.50;99.90;;;;;;7383888;19;20026;-50
2023/01/04 05:45:21;;;;;;;12.70;11.25;;;10.60;99.90;;;;;;7359374;19;20022;-50
2023/01/04 05:47:51;;;;;;;14.75;11.98;;;10.60;99.90;;;;;;7361200;19;20022;-49
2023/01/04 05:50:22;;;;;;;13.00;11.35;;;10.60;99.90;;;;;;7367663;19;20537;-57
2023/01/04 05:52:49;;;;;;;12.95;11.27;;;10.60;99.90;;;;;;7374261;19;20034;-55
2023/01/04 05:55:16;;;;;;;13.82;11.77;;;10.60;99.90;;;;;;7372635;19;20014;-57
2023/01/04 05:57:42;;;;;;;13.35;11.30;;;10.70;99.90;;;;;;7373942;19;20526;-52
2023/01/04 06:00:10;;;;;;;13.45;10.70;;;10.70;99.90;;;;;;7362985;19;20018;-48
2023/01/04 06:02:51;;;;;;;11.90;10.05;;;10.60;99.90;;;;;;7361278;19;20015;-50
2023/01/04 06:05:18;;;;;;;13.65;10.70;;;10.70;99.90;;;;;;7361837;19;20359;-55
2023/01/04 06:07:45;;;;;;;16.95;12.02;;;10.70;99.90;;;;;;7372742;19;20023;-56
2023/01/04 06:10:13;;;;;;;12.05;9.63;;;10.70;99.90;;;;;;7372712;19;20014;-55
2023/01/04 06:12:40;;;;;;;16.98;11.35;;;10.80;99.90;;;;;;7378174;19;20047;-56
2023/01/04 06:15:08;;;;;;;12.50;9.93;;;10.80;99.90;;;;;;7360847;19;20019;-47
2023/01/04 06:17:55;;;;;;;12.48;9.73;;;10.80;99.90;;;;;;7359331;19;20029;-48
2023/01/04 06:20:22;;;;;;;14.50;10.55;;;10.80;99.90;;;;;;7365792;19;20031;-47
2023/01/04 06:22:48;;;;;;;13.90;9.00;;;10.80;99.90;;;;;;7383068;19;20462;-55
2023/01/04 06:25:15;;;;;;;11.98;8.43;;;10.90;99.90;;;;;;7386700;19;20499;-55
2023/01/04 06:27:43;;;;;;;13.55;8.60;;;10.80;99.90;;;;;;7388078;19;20029;-55
2023/01/04 06:30:10;;;;;;;11.68;8.20;;;10.90;99.90;;;;;;7388820;19;20025;-55
2023/01/04 06:32:36;;;;;;;12.55;7.95;;;10.90;99.90;;;;;;7388430;19;20011;-55
2023/01/04 06:35:03;;;;;;;10.75;7.65;;;11.00;99.90;;;;;;7389178;19;20357;-56
2023/01/04 06:37:30;;;;;;;10.93;8.00;;;10.90;99.90;;;;;;7391086;19;20037;-56
2023/01/04 06:39:56;;;;;;;9.65;7.38;;;11.00;99.90;;;;;;7382176;19;20084;-57
2023/01/04 06:45:08;;;;;;;10.25;7.63;;;10.90;99.90;;;;;;7377247;19;20584;-51
2023/01/04 06:47:35;;;;;;;9.43;7.18;;;10.90;99.90;;;;;;7387903;19;20022;-56
2023/01/04 06:50:03;;;;;;;8.98;6.60;;;10.90;99.90;;;;;;7390466;19;20011;-55
2023/01/04 06:52:33;;;;;;;9.82;6.72;;;10.90;99.90;;;;;;7390720;19;20029;-56
2023/01/04 06:54:59;;;;;;;8.32;6.82;;;10.90;99.90;;;;;;7384706;19;20031;-56
2023/01/04 06:57:29;;;;;;;7.78;6.45;;;11.00;99.90;;;;;;7382170;19;20014;-55
2023/01/04 06:59:58;;;;;;;9.50;7.63;;;11.00;99.90;;;;;;7383092;19;20015;-49
2023/01/04 07:02:25;;;;;;;8.00;6.78;;;10.90;99.90;;;;;;7364561;19;20021;-51
2023/01/04 07:04:52;;;;;;;7.82;6.93;;;10.90;99.90;;;;;;7361093;19;20493;-49
2023/01/04 07:07:18;;;;;;;8.77;6.47;;;10.90;99.90;;;;;;7360646;19;20567;-51
2023/01/04 07:09:45;;;;;;;8.15;5.90;;;10.90;99.90;;;;;;7364080;19;20510;-51
2023/01/04 07:12:11;;;;;;;8.02;5.90;;;10.90;99.90;;;;;;7362911;19;20492;-53
2023/01/04 07:14:37;;;;;;;6.28;5.35;;;10.90;99.90;;;;;;7360584;19;20015;-53
2023/01/04 07:17:04;;;;;;;7.50;5.57;;;11.00;99.90;;;;;;7358341;19;20456;-53
2023/01/04 07:19:31;;;;;;;6.10;5.10;;;10.90;99.90;;;;;;7361026;19;20015;-53
2023/01/04 07:21:58;;;;;;;6.68;5.47;;;11.00;99.90;;;;;;7357476;19;20018;-53
2023/01/04 07:24:25;;;;;;;7.43;5.15;;;11.00;99.90;;;;;;7366463;19;20519;-52
2023/01/04 07:26:51;;;;;;;5.65;5.05;;;11.10;99.90;;;;;;7369406;19;20463;-52
2023/01/04 07:29:21;;;;;;;5.90;5.28;;;10.90;99.90;;;;;;7370649;19;20357;-53
2023/01/04 07:31:49;;;;;;;5.80;4.68;;;11.00;99.90;;;;;;7365813;19;20018;-51
2023/01/04 07:34:18;;;;;;;6.95;5.10;;;11.10;99.90;;;;;;7367043;19;20342;-53
2023/01/04 07:36:46;;;;;;;6.07;5.38;;;11.00;99.90;;;;;;7376095;19;20082;-52
2023/01/04 07:39:20;;;;;;;5.32;4.40;;;11.00;99.90;;;;;;7385635;19;20474;-57
2023/01/04 07:41:48;;;;;;;5.53;4.82;;;11.00;99.90;;;;;;7389814;19;20018;-56
2023/01/04 07:44:18;;;;;;;5.90;5.13;;;11.00;99.90;;;;;;7391651;19;20026;-57
2023/01/04 07:46:45;;;;;;;7.68;4.80;;;11.00;99.90;;;;;;7391663;19;20022;-56
2023/01/04 07:49:14;;;;;;;6.50;4.70;;;11.10;99.90;;;;;;7393004;19;20011;-58
2023/01/04 07:51:41;;;;;;;6.43;4.95;;;11.10;99.90;;;;;;7392401;19;20015;-57
2023/01/04 07:54:09;;;;;;;6.07;5.07;;;11.10;99.90;;;;;;7389482;19;20461;-57
2023/01/04 07:56:36;;;;;;;7.75;5.97;;;11.10;99.90;;;;;;7387418;19;20082;-57
2023/01/04 07:59:08;;;;;;;6.30;5.32;;;11.20;99.90;;;;;;7388447;19;20014;-57
2023/01/04 08:01:37;;;;;;;7.75;5.90;;;11.20;99.90;;;;;;7388478;19;20026;-56
2023/01/04 08:04:08;;;;;;;6.95;5.75;;;11.10;99.90;;;;;;7390207;19;20027;-56
2023/01/04 08:06:36;;;;;;;7.82;6.53;;;11.20;99.90;;;;;;7391656;19;20117;-58
2023/01/04 08:09:04;;;;;;;9.13;5.97;;;11.10;99.90;;;;;;7388709;19;20456;-56
2023/01/04 08:11:40;;;;;;;9.98;6.78;;;11.10;99.90;;;;;;7392735;19;20031;-57
2023/01/04 08:14:06;;;;;;;8.38;6.70;;;11.20;99.90;;;;;;7392673;19;20011;-56
2023/01/04 08:16:36;;;;;;;9.02;6.95;;;11.20;99.90;;;;;;7393718;19;20602;-57
2023/01/04 08:19:14;;;;;;;11.73;7.18;;;11.30;99.90;;;;;;7393078;19;20011;-56
2023/01/04 08:21:46;;;;;;;8.55;6.97;;;11.20;99.90;;;;;;7376631;19;20019;-55
2023/01/04 08:24:16;;;;;;;8.15;7.20;;;11.20;99.90;;;;;;7368155;19;20899;-56
2023/01/04 08:26:43;;;;;;;8.93;6.40;;;11.20;99.90;;;;;;7392173;19;20018;-57
2023/01/04 08:29:10;;;;;;;7.75;6.60;;;11.30;99.90;;;;;;7390759;19;20078;-57
2023/01/04 08:31:38;;;;;;;9.55;7.25;;;11.30;99.90;;;;;;7391936;19;20015;-57
2023/01/04 08:34:08;;;;;;;9.25;6.80;;;11.20;99.90;;;;;;7390985;19;20014;-57
2023/01/04 08:36:43;;;;;;;9.73;7.13;;;11.30;99.90;;;;;;7389853;19;20275;-57
2023/01/04 08:39:15;;;;;;;9.10;6.90;;;11.30;99.90;;;;;;7389378;19;20010;-57
2023/01/04 08:41:50;;;;;;;7.88;6.78;;;11.30;99.90;;;;;;7388582;19;20550;-57
2023/01/04 08:44:22;;;;;;;7.72;6.18;;;11.30;99.90;;;;;;7388176;19;20010;-57
2023/01/04 08:46:49;;;;;;;7.35;6.53;;;11.30;99.90;;;;;;7385608;19;20018;-55
2023/01/04 08:49:16;;;;;;;7.05;5.82;;;11.30;99.90;;;;;;7361902;19;20891;-55
2023/01/04 08:51:47;;;;;;;6.97;5.30;;;11.30;99.90;;;;;;7362004;19;20014;-55
2023/01/04 08:54:14;;;;;;;6.88;5.35;;;11.40;99.90;;;;;;7362340;19;20973;-55
2023/01/04 08:56:41;;;;;;;7.55;6.15;;;11.40;99.90;;;;;;7358861;19;20395;-55
2023/01/04 08:59:09;;;;;;;7.28;5.15;;;11.30;99.90;;;;;;7363204;19;20015;-56
2023/01/04 09:01:40;;;;;;;9.40;5.05;;;11.40;99.90;;;;;;7359828;19;20017;-55
2023/01/04 09:04:19;;;;;;;5.75;4.50;;;11.40;99.90;;;;;;7362237;19;20085;-56
2023/01/04 09:06:45;;;;;;;6.05;4.97;;;11.40;99.90;;;;;;7362567;19;20035;-55
2023/01/04 09:09:13;;;;;;;8.32;5.00;;;11.50;99.90;;;;;;7360381;19;20015;-55
2023/01/04 09:11:39;;;;;;;5.95;4.38;;;11.40;99.90;;;;;;7361657;19;20014;-55
2023/01/04 09:14:09;;;;;;;5.68;4.85;;;11.40;99.90;;;;;;7360935;19;20021;-55
2023/01/04 09:16:39;;;;;;;4.78;4.20;;;11.40;99.90;;;;;;7362395;19;20022;-55
2023/01/04 09:19:05;;;;;;;6.03;3.80;;;11.50;99.90;;;;;;7359904;19;20023;-55
2023/01/04 09:21:32;;;;;;;4.63;3.70;;;11.40;99.90;;;;;;7364388;19;20082;-55
2023/01/04 09:24:00;;;;;;;6.40;3.58;;;11.50;99.90;;;;;;7362209;19;20014;-55
2023/01/04 09:26:28;;;;;;;4.88;3.42;;;11.50;99.90;;;;;;7373500;19;20021;-57
2023/01/04 09:28:55;;;;;;;5.60;3.92;;;11.40;99.90;;;;;;7359461;19;20034;-56
2023/01/04 09:31:25;;;;;;;4.60;3.13;;;11.50;99.90;;;;;;7362657;19;20027;-55
2023/01/04 09:33:52;;;;;;;4.70;3.22;;;11.50;99.90;;;;;;7360595;19;20021;-55
2023/01/04 09:36:19;;;;;;;3.10;2.47;;;11.50;99.90;;;;;;7361941;19;20018;-56
2023/01/04 09:38:46;;;;;;;4.07;2.85;;;11.50;99.90;;;;;;7362226;19;20493;-56
2023/01/04 09:41:12;;;;;;;5.97;2.70;;;11.50;99.90;;;;;;7363173;19;20037;-55
2023/01/04 09:43:55;;;;;;;3.97;2.53;;;11.50;99.90;;;;;;7360255;19;20049;-55
2023/01/04 09:46:25;;;;;;;2.90;2.17;;;11.40;99.90;;;;;;7359348;19;20018;-56
2023/01/04 09:49:00;;;;;;;4.97;3.08;;;11.50;99.90;;;;;;7364216;19;20476;-54
2023/01/04 09:51:35;;;;;;;4.63;2.83;;;11.50;99.90;;;;;;7360518;19;20026;-56
2023/01/04 09:54:12;;;;;;;4.90;3.10;;;11.50;99.90;;;;;;7360490;19;20591;-55
2023/01/04 09:56:48;;;;;;;4.30;2.70;;;11.50;99.90;;;;;;7358855;19;20776;-56
2023/01/04 09:59:19;;;;;;;3.60;2.90;;;11.50;99.90;;;;;;7361748;19;20650;-55
2023/01/04 10:01:58;;;;;;;4.72;3.10;;;11.40;99.90;;;;;;7360195;19;20019;-55
2023/01/04 10:04:37;;;;;;;3.63;2.30;;;11.50;99.90;;;;;;7362037;19;20022;-55
2023/01/04 10:07:03;;;;;;;5.32;3.38;;;11.50;99.90;;;;;;7362901;19;20025;-54
2023/01/04 10:09:30;;;;;;;4.43;2.63;;;11.50;99.90;;;;;;7362799;19;20478;-56
2023/01/04 10:12:12;;;;;;;4.93;2.83;;;11.60;99.90;;;;;;7361469;19;20085;-56
2023/01/04 10:14:49;;;;;;;5.25;3.55;;;11.50;99.90;;;;;;7358948;19;20023;-56
2023/01/04 10:17:37;;;;;;;5.05;3.67;;;11.60;99.90;;;;;;7359082;19;20439;-56
2023/01/04 10:20:04;;;;;;;4.10;2.88;;;11.60;99.90;;;;;;7362345;19;20389;-56
2023/01/04 10:23:05;;;;;;;6.15;3.40;;;11.50;99.90;;;;;;7362827;19;20053;-57
2023/01/04 10:25:54;;;;;;;5.75;3.40;;;11.50;99.90;;;;;;7357765;19;20575;-56
2023/01/04 10:28:21;;;;;;;9.52;3.90;;;11.60;99.90;;;;;;7360958;19;20565;-57
2023/01/04 10:31:12;;;;;;;6.22;3.35;;;11.60;99.90;;;;;;7357159;19;20025;-56
2023/01/04 10:33:46;;;;;;;9.40;3.90;;;11.60;99.90;;;;;;7357501;19;20376;-56
2023/01/04 10:36:19;;;;;;;11.25;4.28;;;11.70;99.90;;;;;;7357621;19;20014;-57
2023/01/04 10:38:49;;;;;;;10.52;4.07;;;11.70;99.90;;;;;;7357196;19;20034;-57
2023/01/04 10:41:23;;;;;;;14.00;4.38;;;11.70;99.90;;;;;;7359058;19;20102;-57
2023/01/04 10:44:01;;;;;;;12.45;4.38;;;11.70;99.90;;;;;;7357869;19;20786;-56
2023/01/04 10:46:43;;;;;;;14.00;4.57;;;11.90;99.90;;;;;;7361290;19;20019;-57
2023/01/04 10:49:13;;;;;;;13.38;4.60;;;11.90;99.90;;;;;;7354835;19;20018;-56
2023/01/04 10:51:54;;;;;;;14.70;4.40;;;11.80;99.90;;;;;;7361599;19;20041;-57
2023/01/04 10:54:24;;;;;;;14.20;3.78;;;11.90;99.90;;;;;;7357066;19;20369;-56
2023/01/04 10:56:54;;;;;;;14.18;4.57;;;11.90;99.90;;;;;;7358680;19;20021;-56
2023/01/04 10:59:40;;;;;;;17.08;5.35;;;12.00;99.90;;;;;;7365149;19;20029;-56
2023/01/04 11:02:22;;;;;;;18.10;3.90;;;11.90;99.90;;;;;;7361574;19;20022;-57
2023/01/04 11:05:11;;;;;;;16.88;4.28;;;11.90;99.90;;;;;;7363898;19;20027;-56
2023/01/04 11:07:40;;;;;;;13.90;4.10;;;12.00;99.90;;;;;;7367422;19;20592;-57
2023/01/04 11:10:25;;;;;;;9.10;3.08;;;12.00;99.90;;;;;;7365156;19;20727;-57
2023/01/04 11:12:51;;;;;;;12.73;3.80;;;12.00;99.90;;;;;;7366407;19;20031;-57
2023/01/04 11:15:19;;;;;;;16.20;3.83;;;11.90;99.90;;;;;;7363490;19;20018;-56
2023/01/04 11:17:47;;;;;;;15.07;3.72;;;11.90;99.90;;;;;;7364811;19;20019;-56
2023/01/04 11:20:14;;;;;;;18.83;3.50;;;12.00;99.90;;;;;;7366039;19;20014;-57
2023/01/04 11:22:45;;;;;;;13.63;3.28;;;12.00;99.90;;;;;;7367832;19;20901;-57
2023/01/04 11:25:17;;;;;;;12.90;3.17;;;12.00;99.90;;;;;;7364756;19;20097;-57
2023/01/04 11:27:48;;;;;;;13.13;3.53;;;12.00;99.90;;;;;;7368136;19;20020;-57
2023/01/04 11:30:22;;;;;;;17.15;4.18;;;12.10;99.90;;;;;;7365845;19;20990;-58
2023/01/04 11:33:04;;;;;;;17.80;3.75;;;12.10;99.90;;;;;;7362755;19;20023;-57
2023/01/04 11:35:39;;;;;;;15.20;3.65;;;12.10;99.90;;;;;;7364693;19;20024;-57
2023/01/04 11:38:20;;;;;;;11.65;3.47;;;12.10;99.90;;;;;;7363258;19;20075;-57
2023/01/04 11:41:14;;;;;;;17.80;4.32;;;12.10;99.90;;;;;;7364774;19;20049;-56
2023/01/04 11:43:56;;;;;;;11.15;3.28;;;12.10;99.90;;;;;;7361801;19;20040;-57
2023/01/04 11:46:25;;;;;;;17.02;4.65;;;12.10;99.90;;;;;;7366280;19;20022;-58
2023/01/04 11:48:53;;;;;;;14.23;3.95;;;12.10;99.90;;;;;;7364066;19;20041;-57
2023/01/04 11:51:28;;;;;;;16.85;3.63;;;12.20;99.90;;;;;;7398630;19;20511;-58
2023/01/04 11:54:13;;;;;;;10.00;3.47;;;12.10;99.90;;;;;;7397182;19;20015;-58
2023/01/04 11:56:56;;;;;;;17.40;3.53;;;12.10;99.90;;;;;;7379950;19;20018;-57
2023/01/04 11:59:22;;;;;;;15.45;4.03;;;12.10;99.90;;;;;;7398920;19;20466;-58
2023/01/04 12:01:51;;;;;;;14.32;3.55;;;12.10;99.90;;;;;;7398096;19;20015;-58
2023/01/04 12:04:22;;;;;;;16.75;3.88;;;12.10;99.90;;;;;;7397845;19;20474;-58
2023/01/04 12:07:12;;;;;;;18.90;4.20;;;12.10;99.90;;;;;;7383650;19;20010;-57
2023/01/04 12:09:39;;;;;;;17.13;4.70;;;12.10;99.90;;;;;;7358038;19;20388;-58
2023/01/04 12:12:05;;;;;;;14.73;4.40;;;12.10;99.90;;;;;;7363011;19;20026;-57
2023/01/04 12:14:36;;;;;;;14.57;4.05;;;12.10;99.90;;;;;;7357547;19;20376;-57
2023/01/04 12:17:23;;;;;;;18.02;4.30;;;12.10;99.90;;;;;;7365505;19;20026;-57
2023/01/04 12:19:54;;;;;;;16.63;3.83;;;12.10;99.90;;;;;;7362970;19;20021;-57
2023/01/04 12:22:35;;;;;;;12.13;3.67;;;12.10;99.90;;;;;;7363340;19;20018;-57
2023/01/04 12:25:03;;;;;;;15.45;4.05;;;12.10;99.90;;;;;;7364058;19;20070;-57
2023/01/04 12:27:33;;;;;;;10.98;3.20;;;12.10;99.90;;;;;;7363459;19;20029;-57
2023/01/04 12:30:04;;;;;;;12.18;2.67;;;12.10;99.90;;;;;;7363897;19;20366;-57
2023/01/04 12:32:31;;;;;;;8.77;2.30;;;12.10;99.90;;;;;;7363581;19;20334;-56
2023/01/04 12:35:01;;;;;;;8.98;2.00;;;12.10;99.90;;;;;;7385152;19;20086;-58
2023/01/04 12:37:37;;;;;;;5.43;1.55;;;12.10;99.90;;;;;;7392603;19;20876;-58
2023/01/04 12:40:42;;;;;;;5.55;1.60;;;12.10;99.90;;;;;;7392123;19;21272;-58
2023/01/04 12:43:15;;;;;;;3.97;1.20;;;12.10;99.90;;;;;;7392559;19;20477;-58
2023/01/04 12:45:43;;;;;;;6.38;1.67;;;12.10;99.90;;;;;;7394218;19;20018;-58
2023/01/04 12:51:25;;;;;;;5.65;2.10;;;12.10;99.90;;;;;;7385246;19;20043;-57
2023/01/04 12:53:54;;;;;;;7.63;1.60;;;12.10;99.90;;;;;;7363981;19;20015;-57
2023/01/04 12:56:21;;;;;;;8.02;1.50;;;12.10;99.90;;;;;;7359188;19;20015;-57
2023/01/04 12:59:11;;;;;;;7.20;2.13;;;12.10;99.90;;;;;;7357277;19;20021;-57
2023/01/04 13:02:26;;;;;;;10.48;2.42;;;12.10;99.90;;;;;;7379071;19;20468;-57
2023/01/04 13:05:15;;;;;;;12.43;2.78;;;12.00;99.90;;;;;;7376812;19;20025;-57
2023/01/04 13:08:10;;;;;;;11.13;2.42;;;12.00;99.90;;;;;;7384838;19;20010;-58
2023/01/04 13:10:56;;;;;;;10.18;2.83;;;12.00;99.90;;;;;;7364978;19;20322;-57
2023/01/04 13:13:54;;;;;;;13.43;2.88;;;12.00;99.90;;;;;;7362521;19;20047;-62
2023/01/04 13:16:49;;;;;;;14.85;4.30;;;12.00;99.90;;;;;;7363005;19;20646;-58
2023/01/04 13:19:23;;;;;;;14.45;3.47;;;12.00;99.90;;;;;;7363992;19;20019;-57
2023/01/04 13:21:52;;;;;;;16.92;4.13;;;12.00;99.90;;;;;;7363786;19;20029;-57
2023/01/04 13:24:26;;;;;;;13.20;3.40;;;12.00;99.90;;;;;;7362578;19;20007;-57
2023/01/04 13:27:13;;;;;;;18.38;4.45;;;12.00;99.90;;;;;;7359976;19;20024;-58
2023/01/04 13:29:41;;;;;;;16.23;3.25;;;12.00;99.90;;;;;;7362069;19;20071;-58
2023/01/04 13:32:23;;;;;;;18.95;3.67;;;12.00;99.90;;;;;;7360093;19;20029;-57
2023/01/04 13:35:16;;;;;;;18.65;3.78;;;12.00;99.90;;;;;;7361980;19;20069;-57
2023/01/04 13:37:45;;;;;;;19.42;4.63;;;12.00;99.90;;;;;;7360117;19;20362;-58
2023/01/04 13:40:23;;;;;;;20.13;4.07;;;12.00;99.90;;;;;;7373692;19;20018;-58
2023/01/04 13:43:08;;;;;;;19.52;4.60;;;12.00;99.90;;;;;;7360365;19;20018;-57
2023/01/04 13:46:04;;;;;;;16.15;4.78;;;11.90;99.90;;;;;;7361646;19;20022;-60
2023/01/04 13:48:36;;;;;;;25.30;4.53;;;12.00;99.90;;;;;;7361406;19;20480;-58
2023/01/04 13:51:21;;;;;;;18.88;4.40;;;11.90;99.90;;;;;;7360068;19;20369;-58
2023/01/04 13:53:56;;;;;;;21.13;4.32;;;11.90;99.90;;;;;;7360078;19;21153;-57
2023/01/04 13:56:27;;;;;;;17.45;3.65;;;11.90;99.90;;;;;;7357841;19;20026;-56
2023/01/04 13:58:55;;;;;;;22.67;5.20;;;11.90;99.90;;;;;;7365411;19;20010;-57
2023/01/04 14:01:21;;;;;;;21.27;4.47;;;11.90;99.90;;;;;;7366877;19;20035;-58
2023/01/04 14:03:56;;;;;;;16.27;4.50;;;11.90;99.90;;;;;;7359918;19;20386;-57
2023/01/04 14:06:29;;;;;;;18.52;3.90;;;11.90;99.90;;;;;;7358367;19;20465;-58